createdAt,value
2019-05-01T00:00:15.710Z,994.27
2019-05-01T00:01:05.388Z,994.24
2019-05-01T00:02:05.589Z,994.26
2019-05-01T00:03:05.715Z,994.24
2019-05-01T00:04:05.905Z,994.25
2019-05-01T00:05:06.044Z,994.26
2019-05-01T00:06:06.211Z,994.22
2019-05-01T00:07:06.389Z,994.25
2019-05-01T00:08:06.580Z,994.26
2019-05-01T00:09:06.743Z,994.27
2019-05-01T00:10:06.914Z,994.26
2019-05-01T00:11:07.084Z,994.21
2019-05-01T00:12:07.250Z,994.21
2019-05-01T00:13:07.413Z,994.21
2019-05-01T00:14:07.594Z,994.23
2019-05-01T00:15:07.783Z,994.24
2019-05-01T00:16:07.951Z,994.22
2019-05-01T00:17:08.126Z,994.22
2019-05-01T00:18:08.281Z,994.20
2019-05-01T00:19:08.452Z,994.20
2019-05-01T00:20:08.638Z,994.17
2019-05-01T00:21:08.803Z,994.18
2019-05-01T00:22:08.964Z,994.15
2019-05-01T00:23:09.132Z,994.14
2019-05-01T00:24:09.321Z,994.18
2019-05-01T00:25:09.469Z,994.18
2019-05-01T00:26:09.921Z,994.19
2019-05-01T00:27:09.866Z,994.19
2019-05-01T00:28:10.028Z,994.20
2019-05-01T00:29:10.181Z,994.19
2019-05-01T00:30:10.347Z,994.20
2019-05-01T00:31:10.513Z,994.17
2019-05-01T00:32:10.674Z,994.15
2019-05-01T00:33:10.839Z,994.18
2019-05-01T00:34:10.997Z,994.17
2019-05-01T00:35:11.190Z,994.13
2019-05-01T00:36:11.314Z,994.17
2019-05-01T00:37:11.471Z,994.18
2019-05-01T00:38:11.693Z,994.17
2019-05-01T00:39:11.814Z,994.18
2019-05-01T00:40:11.974Z,994.18
2019-05-01T00:41:12.140Z,994.19
2019-05-01T00:42:12.310Z,994.17
2019-05-01T00:43:12.488Z,994.17
2019-05-01T00:44:12.653Z,994.14
2019-05-01T00:45:12.837Z,994.15
2019-05-01T00:46:12.958Z,994.07
2019-05-01T00:47:13.138Z,994.09
2019-05-01T00:48:13.285Z,994.08
2019-05-01T00:49:13.451Z,994.09
2019-05-01T00:50:13.619Z,994.08
2019-05-01T00:51:13.834Z,994.08
2019-05-01T00:52:14.021Z,994.08
2019-05-01T00:53:14.201Z,994.06
2019-05-01T00:54:14.435Z,994.01
2019-05-01T00:55:14.535Z,994.03
2019-05-01T00:56:14.702Z,994.01
2019-05-01T00:57:14.888Z,993.99
2019-05-01T00:58:15.054Z,994.05
2019-05-01T00:59:15.238Z,993.97
2019-05-01T01:00:15.394Z,993.99
2019-05-01T01:01:15.555Z,993.98
2019-05-01T01:02:15.722Z,993.97
2019-05-01T01:03:15.903Z,993.98
2019-05-01T01:04:16.072Z,993.98
2019-05-01T01:05:16.260Z,993.97
2019-05-01T01:06:16.444Z,993.98
2019-05-01T01:07:16.612Z,993.97
2019-05-01T01:08:16.790Z,993.96
2019-05-01T01:09:16.984Z,993.99
2019-05-01T01:10:17.347Z,993.99
2019-05-01T01:11:17.340Z,994.00
2019-05-01T01:12:17.502Z,993.97
2019-05-01T01:13:17.661Z,994.00
2019-05-01T01:14:17.837Z,993.97
2019-05-01T01:15:18.022Z,993.95
2019-05-01T01:16:18.184Z,993.93
2019-05-01T01:17:18.343Z,993.95
2019-05-01T01:18:18.542Z,993.92
2019-05-01T01:19:18.705Z,993.93
2019-05-01T01:20:18.876Z,993.98
2019-05-01T01:21:19.052Z,993.95
2019-05-01T01:22:19.245Z,993.91
2019-05-01T01:23:19.427Z,993.97
2019-05-01T01:24:19.599Z,993.92
2019-05-01T01:25:19.790Z,993.95
2019-05-01T01:26:19.956Z,993.92
2019-05-01T01:27:20.135Z,993.93
2019-05-01T01:28:20.301Z,993.93
2019-05-01T01:29:20.464Z,993.90
2019-05-01T01:30:20.629Z,993.92
2019-05-01T01:31:20.842Z,993.93
2019-05-01T01:32:20.914Z,993.93
2019-05-01T01:33:21.087Z,993.93
2019-05-01T01:34:21.255Z,993.95
2019-05-01T01:35:21.423Z,993.93
2019-05-01T01:36:21.600Z,993.88
2019-05-01T01:37:21.754Z,993.91
2019-05-01T01:38:21.962Z,993.92
2019-05-01T01:39:22.016Z,993.88
2019-05-01T01:40:22.191Z,993.89
2019-05-01T01:41:22.364Z,993.82
2019-05-01T01:42:22.536Z,993.85
2019-05-01T01:43:22.726Z,993.83
2019-05-01T01:44:22.869Z,993.84
2019-05-01T01:45:23.039Z,993.81
2019-05-01T01:46:23.198Z,993.77
2019-05-01T01:47:23.370Z,993.79
2019-05-01T01:48:23.546Z,993.77
2019-05-01T01:49:23.719Z,993.84
2019-05-01T01:50:23.881Z,993.80
2019-05-01T01:51:24.068Z,993.78
2019-05-01T01:52:24.254Z,993.79
2019-05-01T01:53:24.412Z,993.79
2019-05-01T01:54:24.580Z,993.78
2019-05-01T01:55:24.750Z,993.74
2019-05-01T01:56:24.932Z,993.78
2019-05-01T01:57:25.106Z,993.74
2019-05-01T01:58:25.277Z,993.76
2019-05-01T01:59:25.436Z,993.76
2019-05-01T02:00:25.590Z,993.74
2019-05-01T02:01:25.771Z,993.73
2019-05-01T02:02:25.943Z,993.72
2019-05-01T02:03:26.106Z,993.70
2019-05-01T02:04:26.273Z,993.67
2019-05-01T02:05:26.446Z,993.64
2019-05-01T02:06:26.612Z,993.65
2019-05-01T02:07:26.785Z,993.63
2019-05-01T02:08:26.952Z,993.60
2019-05-01T02:09:27.131Z,993.65
2019-05-01T02:10:27.458Z,993.66
2019-05-01T02:11:27.418Z,993.61
2019-05-01T02:12:27.589Z,993.60
2019-05-01T02:13:27.767Z,993.66
2019-05-01T02:14:27.936Z,993.65
2019-05-01T02:15:28.097Z,993.62
2019-05-01T02:16:28.264Z,993.62
2019-05-01T02:17:28.426Z,993.64
2019-05-01T02:18:28.600Z,993.66
2019-05-01T02:19:28.776Z,993.61
2019-05-01T02:20:28.942Z,993.62
2019-05-01T02:21:29.167Z,993.64
2019-05-01T02:22:29.325Z,993.64
2019-05-01T02:23:29.543Z,993.63
2019-05-01T02:24:29.730Z,993.64
2019-05-01T02:25:29.891Z,993.64
2019-05-01T02:26:30.049Z,993.63
2019-05-01T02:27:30.233Z,993.70
2019-05-01T02:28:30.386Z,993.68
2019-05-01T02:29:30.606Z,993.65
2019-05-01T02:30:30.674Z,993.60
2019-05-01T02:31:30.856Z,993.62
2019-05-01T02:32:31.031Z,993.64
2019-05-01T02:33:31.219Z,993.60
2019-05-01T02:34:31.391Z,993.59
2019-05-01T02:35:31.556Z,993.60
2019-05-01T02:36:31.724Z,993.59
2019-05-01T02:37:31.903Z,993.53
2019-05-01T02:38:32.098Z,993.56
2019-05-01T02:39:32.283Z,993.53
2019-05-01T02:40:32.440Z,993.55
2019-05-01T02:41:32.618Z,993.59
2019-05-01T02:42:32.761Z,993.60
2019-05-01T02:43:32.921Z,993.58
2019-05-01T02:44:33.096Z,993.63
2019-05-01T02:45:33.244Z,993.62
2019-05-01T02:46:33.415Z,993.60
2019-05-01T02:47:33.589Z,993.57
2019-05-01T02:48:33.783Z,993.58
2019-05-01T02:49:33.860Z,993.54
2019-05-01T02:50:34.013Z,993.52
2019-05-01T02:51:34.173Z,993.51
2019-05-01T02:52:34.345Z,993.48
2019-05-01T02:53:34.507Z,993.48
2019-05-01T02:54:34.678Z,993.48
2019-05-01T02:55:34.845Z,993.49
2019-05-01T02:56:35.004Z,993.48
2019-05-01T02:57:35.204Z,993.48
2019-05-01T02:58:35.455Z,993.51
2019-05-01T02:59:35.519Z,993.50
2019-05-01T03:00:35.718Z,993.43
2019-05-01T03:01:46.604Z,993.42
2019-05-01T03:02:36.042Z,993.39
2019-05-01T03:03:36.220Z,993.36
2019-05-01T03:04:36.398Z,993.37
2019-05-01T03:05:36.564Z,993.38
2019-05-01T03:06:36.737Z,993.35
2019-05-01T03:07:36.913Z,993.39
2019-05-01T03:08:37.102Z,993.37
2019-05-01T03:09:37.262Z,993.39
2019-05-01T03:10:37.408Z,993.40
2019-05-01T03:11:37.592Z,993.38
2019-05-01T03:12:37.744Z,993.35
2019-05-01T03:13:37.913Z,993.39
2019-05-01T03:14:39.586Z,993.42
2019-05-01T03:15:41.699Z,993.41
2019-05-01T03:16:42.923Z,993.35
2019-05-01T03:17:43.762Z,993.40
2019-05-01T03:18:40.689Z,993.38
2019-05-01T03:19:43.593Z,993.36
2019-05-01T03:20:44.364Z,993.30
2019-05-01T03:21:39.246Z,993.34
2019-05-01T03:22:39.292Z,993.32
2019-05-01T03:23:39.481Z,993.33
2019-05-01T03:24:39.650Z,993.30
2019-05-01T03:25:39.788Z,993.33
2019-05-01T03:26:39.957Z,993.31
2019-05-01T03:27:40.127Z,993.37
2019-05-01T03:28:40.294Z,993.30
2019-05-01T03:29:40.460Z,993.34
2019-05-01T03:30:40.622Z,993.35
2019-05-01T03:31:40.784Z,993.35
2019-05-01T03:32:40.952Z,993.41
2019-05-01T03:33:41.111Z,993.36
2019-05-01T03:34:41.289Z,993.33
2019-05-01T03:35:41.450Z,993.33
2019-05-01T03:36:41.601Z,993.34
2019-05-01T03:37:41.772Z,993.30
2019-05-01T03:38:41.938Z,993.34
2019-05-01T03:39:42.100Z,993.28
2019-05-01T03:40:42.269Z,993.33
2019-05-01T03:41:42.428Z,993.27
2019-05-01T03:42:42.593Z,993.27
2019-05-01T03:43:42.752Z,993.29
2019-05-01T03:44:42.931Z,993.33
2019-05-01T03:45:43.104Z,993.32
2019-05-01T03:46:43.278Z,993.31
2019-05-01T03:47:43.443Z,993.34
2019-05-01T03:48:43.684Z,993.30
2019-05-01T03:49:43.725Z,993.31
2019-05-01T03:50:46.811Z,993.34
2019-05-01T03:51:44.053Z,993.34
2019-05-01T03:52:44.214Z,993.35
2019-05-01T03:53:44.391Z,993.35
2019-05-01T03:54:44.569Z,993.32
2019-05-01T03:55:44.720Z,993.31
2019-05-01T03:56:44.888Z,993.32
2019-05-01T03:57:45.051Z,993.29
2019-05-01T03:58:45.222Z,993.32
2019-05-01T03:59:45.388Z,993.30
2019-05-01T04:00:45.551Z,993.28
2019-05-01T04:01:45.710Z,993.28
2019-05-01T04:02:45.869Z,993.28
2019-05-01T04:03:46.040Z,993.29
2019-05-01T04:04:46.211Z,993.28
2019-05-01T04:05:46.486Z,993.25
2019-05-01T04:06:46.644Z,993.25
2019-05-01T04:07:46.792Z,993.27
2019-05-01T04:08:46.950Z,993.28
2019-05-01T04:09:47.127Z,993.29
2019-05-01T04:10:47.309Z,993.27
2019-05-01T04:11:47.468Z,993.29
2019-05-01T04:12:47.640Z,993.26
2019-05-01T04:13:47.817Z,993.28
2019-05-01T04:14:47.995Z,993.30
2019-05-01T04:15:48.150Z,993.28
2019-05-01T04:16:48.318Z,993.25
2019-05-01T04:17:48.491Z,993.27
2019-05-01T04:18:48.678Z,993.23
2019-05-01T04:19:48.841Z,993.19
2019-05-01T04:20:49.010Z,993.19
2019-05-01T04:21:49.165Z,993.19
2019-05-01T04:22:49.330Z,993.18
2019-05-01T04:23:49.497Z,993.18
2019-05-01T04:24:49.671Z,993.16
2019-05-01T04:25:49.845Z,993.17
2019-05-01T04:26:49.996Z,993.21
2019-05-01T04:27:50.169Z,993.22
2019-05-01T04:28:50.347Z,993.24
2019-05-01T04:29:50.513Z,993.28
2019-05-01T04:30:50.670Z,993.30
2019-05-01T04:31:50.864Z,993.33
2019-05-01T04:32:53.189Z,993.29
2019-05-01T04:33:51.177Z,993.28
2019-05-01T04:34:51.367Z,993.27
2019-05-01T04:35:51.522Z,993.28
2019-05-01T04:36:51.755Z,993.26
2019-05-01T04:37:51.801Z,993.24
2019-05-01T04:38:51.987Z,993.25
2019-05-01T04:39:52.133Z,993.22
2019-05-01T04:40:52.296Z,993.19
2019-05-01T04:41:52.461Z,993.21
2019-05-01T04:42:52.626Z,993.24
2019-05-01T04:43:52.811Z,993.27
2019-05-01T04:44:52.977Z,993.30
2019-05-01T04:45:53.145Z,993.34
2019-05-01T04:46:53.639Z,993.32
2019-05-01T04:47:53.474Z,993.35
2019-05-01T04:48:53.654Z,993.34
2019-05-01T04:49:53.837Z,993.36
2019-05-01T04:50:54.001Z,993.36
2019-05-01T04:51:54.153Z,993.40
2019-05-01T04:52:54.319Z,993.44
2019-05-01T04:53:54.482Z,993.41
2019-05-01T04:54:58.648Z,993.46
2019-05-01T04:55:59.320Z,993.41
2019-05-01T04:57:00.762Z,993.43
2019-05-01T04:57:55.111Z,993.48
2019-05-01T04:58:55.278Z,993.46
2019-05-01T04:59:55.459Z,993.46
2019-05-01T05:00:55.613Z,993.48
2019-05-01T05:01:57.355Z,993.51
2019-05-01T05:03:04.600Z,993.54
2019-05-01T05:03:56.098Z,993.53
2019-05-01T05:04:56.268Z,993.52
2019-05-01T05:05:56.434Z,993.50
2019-05-01T05:06:56.598Z,993.54
2019-05-01T05:07:56.757Z,993.54
2019-05-01T05:08:56.942Z,993.52
2019-05-01T05:09:57.100Z,993.53
2019-05-01T05:10:57.273Z,993.52
2019-05-01T05:11:57.437Z,993.53
2019-05-01T05:12:57.597Z,993.51
2019-05-01T05:13:57.776Z,993.53
2019-05-01T05:14:57.948Z,993.50
2019-05-01T05:15:58.114Z,993.48
2019-05-01T05:16:58.288Z,993.51
2019-05-01T05:17:58.458Z,993.52
2019-05-01T05:18:58.640Z,993.48
2019-05-01T05:20:01.927Z,993.51
2019-05-01T05:20:59.621Z,993.53
2019-05-01T05:22:00.871Z,993.52
2019-05-01T05:22:59.902Z,993.51
2019-05-01T05:24:00.401Z,993.54
2019-05-01T05:24:59.561Z,993.55
2019-05-01T05:25:59.734Z,993.54
2019-05-01T05:26:59.960Z,993.60
2019-05-01T05:28:00.006Z,993.58
2019-05-01T05:29:01.233Z,993.58
2019-05-01T05:30:01.677Z,993.56
2019-05-01T05:31:01.740Z,993.57
2019-05-01T05:32:03.363Z,993.55
2019-05-01T05:33:03.835Z,993.58
2019-05-01T05:34:02.168Z,993.56
2019-05-01T05:35:04.023Z,993.57
2019-05-01T05:36:02.688Z,993.56
2019-05-01T05:37:02.824Z,993.52
2019-05-01T05:38:01.717Z,993.55
2019-05-01T05:39:01.881Z,993.54
2019-05-01T05:40:02.057Z,993.58
2019-05-01T05:41:02.233Z,993.65
2019-05-01T05:42:02.396Z,993.59
2019-05-01T05:43:02.569Z,993.60
2019-05-01T05:44:02.742Z,993.62
2019-05-01T05:45:03.053Z,993.60
2019-05-01T05:46:03.057Z,993.59
2019-05-01T05:47:03.298Z,993.58
2019-05-01T05:48:03.444Z,993.59
2019-05-01T05:49:03.604Z,993.60
2019-05-01T05:50:03.780Z,993.61
2019-05-01T05:51:03.959Z,993.61
2019-05-01T05:52:04.143Z,993.64
2019-05-01T05:53:04.313Z,993.60
2019-05-01T05:54:04.477Z,993.58
2019-05-01T05:55:04.645Z,993.57
2019-05-01T05:56:04.806Z,993.57
2019-05-01T05:57:04.983Z,993.53
2019-05-01T05:58:05.151Z,993.49
2019-05-01T05:59:05.317Z,993.48
2019-05-01T06:00:05.483Z,993.48
2019-05-01T06:01:05.654Z,993.49
2019-05-01T06:02:05.833Z,993.48
2019-05-01T06:03:05.999Z,993.51
2019-05-01T06:04:06.178Z,993.53
2019-05-01T06:05:06.366Z,993.46
2019-05-01T06:06:06.538Z,993.50
2019-05-01T06:07:06.703Z,993.50
2019-05-01T06:08:06.872Z,993.50
2019-05-01T06:09:09.078Z,993.49
2019-05-01T06:10:07.215Z,993.51
2019-05-01T06:11:07.369Z,993.49
2019-05-01T06:12:08.947Z,993.46
2019-05-01T06:13:07.713Z,993.48
2019-05-01T06:14:07.859Z,993.46
2019-05-01T06:15:08.042Z,993.44
2019-05-01T06:16:12.224Z,993.46
2019-05-01T06:17:08.308Z,993.48
2019-05-01T06:18:08.487Z,993.46
2019-05-01T06:19:09.671Z,993.48
2019-05-01T06:20:08.805Z,993.45
2019-05-01T06:21:08.989Z,993.47
2019-05-01T06:22:10.032Z,993.47
2019-05-01T06:23:09.313Z,993.48
2019-05-01T06:24:09.474Z,993.47
2019-05-01T06:25:21.229Z,993.47
2019-05-01T06:26:09.849Z,993.44
2019-05-01T06:27:13.893Z,993.44
2019-05-01T06:28:10.187Z,993.44
2019-05-01T06:29:10.350Z,993.43
2019-05-01T06:30:11.205Z,993.40
2019-05-01T06:31:10.696Z,993.39
2019-05-01T06:32:10.862Z,993.39
2019-05-01T06:33:11.320Z,993.42
2019-05-01T06:34:11.221Z,993.41
2019-05-01T06:35:11.392Z,993.43
2019-05-01T06:36:13.192Z,993.45
2019-05-01T06:37:11.754Z,993.43
2019-05-01T06:38:11.909Z,993.45
2019-05-01T06:39:13.309Z,993.47
2019-05-01T06:40:12.241Z,993.44
2019-05-01T06:41:12.405Z,993.40
2019-05-01T06:42:15.196Z,993.40
2019-05-01T06:43:12.754Z,993.41
2019-05-01T06:44:12.923Z,993.37
2019-05-01T06:45:16.807Z,993.39
2019-05-01T06:46:13.280Z,993.43
2019-05-01T06:47:13.426Z,993.40
2019-05-01T06:48:14.209Z,993.38
2019-05-01T06:49:13.927Z,993.35
2019-05-01T06:50:13.907Z,993.38
2019-05-01T06:51:17.919Z,993.40
2019-05-01T06:52:14.312Z,993.41
2019-05-01T06:53:14.471Z,993.41
2019-05-01T06:54:16.190Z,993.41
2019-05-01T06:55:15.018Z,993.42
2019-05-01T06:56:14.968Z,993.44
2019-05-01T06:57:17.736Z,993.46
2019-05-01T06:58:20.498Z,993.46
2019-05-01T06:59:16.978Z,993.48
2019-05-01T07:00:15.807Z,993.49
2019-05-01T07:01:18.822Z,993.46
2019-05-01T07:02:16.191Z,993.47
2019-05-01T07:03:16.121Z,993.49
2019-05-01T07:04:16.581Z,993.50
2019-05-01T07:05:16.583Z,993.50
2019-05-01T07:06:16.574Z,993.54
2019-05-01T07:07:24.983Z,993.55
2019-05-01T07:08:24.315Z,993.54
2019-05-01T07:09:27.333Z,993.52
2019-05-01T07:10:29.513Z,993.52
2019-05-01T07:11:18.135Z,993.52
2019-05-01T07:12:18.387Z,993.49
2019-05-01T07:13:19.013Z,993.52
2019-05-01T07:14:17.840Z,993.48
2019-05-01T07:15:21.773Z,993.48
2019-05-01T07:16:19.225Z,993.52
2019-05-01T07:17:18.677Z,993.52
2019-05-01T07:18:23.303Z,993.54
2019-05-01T07:19:19.493Z,993.56
2019-05-01T07:20:18.997Z,993.55
2019-05-01T07:21:22.806Z,993.56
2019-05-01T07:22:20.488Z,993.60
2019-05-01T07:23:19.464Z,993.60
2019-05-01T07:24:24.115Z,993.57
2019-05-01T07:25:19.780Z,993.61
2019-05-01T07:26:22.673Z,993.60
2019-05-01T07:27:23.662Z,993.54
2019-05-01T07:28:20.709Z,993.56
2019-05-01T07:29:20.315Z,993.57
2019-05-01T07:30:20.954Z,993.53
2019-05-01T07:31:25.838Z,993.52
2019-05-01T07:32:20.816Z,993.49
2019-05-01T07:33:21.019Z,993.49
2019-05-01T07:34:26.097Z,993.49
2019-05-01T07:35:21.295Z,993.49
2019-05-01T07:36:21.610Z,993.48
2019-05-01T07:37:25.904Z,993.49
2019-05-01T07:38:23.318Z,993.47
2019-05-01T07:39:22.502Z,993.49
2019-05-01T07:40:28.915Z,993.48
2019-05-01T07:41:22.517Z,993.53
2019-05-01T07:42:22.880Z,993.49
2019-05-01T07:43:24.112Z,993.49
2019-05-01T07:44:22.838Z,993.49
2019-05-01T07:45:26.376Z,993.51
2019-05-01T07:46:23.018Z,993.51
2019-05-01T07:47:25.954Z,993.54
2019-05-01T07:48:23.594Z,993.50
2019-05-01T07:49:26.467Z,993.49
2019-05-01T07:50:31.272Z,993.53
2019-05-01T07:51:24.578Z,993.53
2019-05-01T07:52:25.033Z,993.54
2019-05-01T07:53:28.374Z,993.55
2019-05-01T07:54:25.852Z,993.56
2019-05-01T07:55:26.459Z,993.55
2019-05-01T07:56:28.096Z,993.56
2019-05-01T07:57:25.796Z,993.56
2019-05-01T07:58:25.771Z,993.58
2019-05-01T07:59:27.478Z,993.61
2019-05-01T08:00:25.915Z,993.60
2019-05-01T08:01:26.411Z,993.60
2019-05-01T08:02:31.129Z,993.63
2019-05-01T08:03:26.103Z,993.63
2019-05-01T08:04:35.897Z,993.59
2019-05-01T08:05:26.961Z,993.61
2019-05-01T08:06:28.161Z,993.61
2019-05-01T08:07:27.843Z,993.56
2019-05-01T08:08:27.593Z,993.58
2019-05-01T08:09:28.267Z,993.56
2019-05-01T08:10:31.454Z,993.58
2019-05-01T08:11:27.963Z,993.59
2019-05-01T08:12:29.225Z,993.56
2019-05-01T08:13:30.551Z,993.57
2019-05-01T08:14:29.231Z,993.58
2019-05-01T08:15:32.423Z,993.57
2019-05-01T08:16:28.322Z,993.55
2019-05-01T08:17:28.248Z,993.56
2019-05-01T08:18:29.333Z,993.56
2019-05-01T08:19:28.650Z,993.57
2019-05-01T08:20:28.767Z,993.55
2019-05-01T08:21:29.025Z,993.57
2019-05-01T08:22:31.992Z,993.63
2019-05-01T08:23:29.358Z,993.57
2019-05-01T08:24:30.387Z,993.55
2019-05-01T08:25:33.225Z,993.55
2019-05-01T08:26:29.747Z,993.51
2019-05-01T08:27:29.943Z,993.50
2019-05-01T08:28:31.964Z,993.52
2019-05-01T08:29:30.295Z,993.49
2019-05-01T08:30:30.453Z,993.48
2019-05-01T08:31:30.646Z,993.45
2019-05-01T08:32:33.669Z,993.45
2019-05-01T08:33:30.923Z,993.44
2019-05-01T08:34:31.522Z,993.41
2019-05-01T08:35:31.723Z,993.39
2019-05-01T08:36:31.644Z,993.39
2019-05-01T08:37:31.841Z,993.43
2019-05-01T08:38:34.277Z,993.46
2019-05-01T08:39:31.862Z,993.41
2019-05-01T08:40:32.474Z,993.38
2019-05-01T08:41:33.104Z,993.41
2019-05-01T08:42:32.324Z,993.42
2019-05-01T08:43:32.496Z,993.43
2019-05-01T08:44:33.373Z,993.48
2019-05-01T08:45:35.794Z,993.48
2019-05-01T08:46:34.551Z,993.51
2019-05-01T08:47:33.121Z,993.52
2019-05-01T08:48:35.863Z,993.52
2019-05-01T08:49:33.469Z,993.49
2019-05-01T08:50:33.634Z,993.53
2019-05-01T08:51:34.893Z,993.61
2019-05-01T08:52:33.977Z,993.60
2019-05-01T08:53:34.168Z,993.60
2019-05-01T08:54:34.878Z,993.60
2019-05-01T08:55:34.535Z,993.69
2019-05-01T08:56:34.724Z,993.63
2019-05-01T08:57:39.283Z,993.65
2019-05-01T08:58:35.054Z,993.66
2019-05-01T08:59:35.236Z,993.70
2019-05-01T09:00:35.961Z,993.68
2019-05-01T09:01:35.590Z,993.66
2019-05-01T09:02:36.672Z,993.64
2019-05-01T09:03:35.965Z,993.64
2019-05-01T09:04:36.141Z,993.62
2019-05-01T09:05:36.312Z,993.60
2019-05-01T09:06:39.330Z,993.61
2019-05-01T09:07:36.681Z,993.59
2019-05-01T09:08:36.833Z,993.60
2019-05-01T09:09:39.709Z,993.62
2019-05-01T09:10:37.221Z,993.61
2019-05-01T09:11:37.551Z,993.60
2019-05-01T09:12:37.546Z,993.58
2019-05-01T09:13:37.918Z,993.57
2019-05-01T09:14:39.759Z,993.58
2019-05-01T09:15:39.152Z,993.61
2019-05-01T09:16:39.707Z,993.55
2019-05-01T09:17:40.720Z,993.56
2019-05-01T09:18:42.307Z,993.52
2019-05-01T09:19:40.544Z,993.54
2019-05-01T09:20:40.667Z,993.53
2019-05-01T09:21:40.871Z,993.48
2019-05-01T09:22:41.018Z,993.52
2019-05-01T09:23:40.563Z,993.48
2019-05-01T09:24:41.507Z,993.47
2019-05-01T09:25:42.486Z,993.45
2019-05-01T09:26:45.292Z,993.46
2019-05-01T09:27:40.954Z,993.46
2019-05-01T09:28:41.673Z,993.43
2019-05-01T09:29:42.151Z,993.44
2019-05-01T09:30:43.686Z,993.44
2019-05-01T09:31:43.240Z,993.37
2019-05-01T09:32:46.008Z,993.40
2019-05-01T09:33:43.441Z,993.41
2019-05-01T09:34:42.406Z,993.36
2019-05-01T09:35:45.244Z,993.39
2019-05-01T09:36:44.469Z,993.38
2019-05-01T09:37:43.607Z,993.40
2019-05-01T09:38:44.085Z,993.39
2019-05-01T09:39:43.634Z,993.37
2019-05-01T09:40:43.695Z,993.39
2019-05-01T09:41:47.389Z,993.36
2019-05-01T09:42:43.158Z,993.31
2019-05-01T09:43:43.524Z,993.33
2019-05-01T09:44:43.749Z,993.31
2019-05-01T09:45:43.734Z,993.31
2019-05-01T09:46:44.290Z,993.27
2019-05-01T09:47:44.437Z,993.29
2019-05-01T09:48:44.445Z,993.25
2019-05-01T09:49:48.584Z,993.26
2019-05-01T09:50:44.841Z,993.26
2019-05-01T09:51:47.478Z,993.26
2019-05-01T09:52:45.017Z,993.25
2019-05-01T09:53:45.306Z,993.23
2019-05-01T09:54:46.744Z,993.21
2019-05-01T09:55:45.633Z,993.20
2019-05-01T09:56:45.833Z,993.16
2019-05-01T09:57:46.223Z,993.16
2019-05-01T09:58:46.176Z,993.15
2019-05-01T09:59:46.120Z,993.12
2019-05-01T10:00:48.900Z,993.11
2019-05-01T10:01:46.483Z,993.11
2019-05-01T10:02:46.673Z,993.08
2019-05-01T10:03:49.386Z,993.03
2019-05-01T10:04:47.045Z,993.04
2019-05-01T10:05:47.229Z,993.01
2019-05-01T10:06:52.261Z,992.97
2019-05-01T10:07:48.910Z,993.00
2019-05-01T10:08:48.968Z,992.91
2019-05-01T10:09:52.141Z,992.94
2019-05-01T10:10:48.199Z,992.99
2019-05-01T10:11:50.006Z,992.97
2019-05-01T10:12:48.562Z,992.93
2019-05-01T10:13:48.753Z,992.98
2019-05-01T10:14:48.925Z,992.93
2019-05-01T10:15:49.107Z,992.88
2019-05-01T10:16:49.291Z,992.86
2019-05-01T10:17:49.469Z,992.88
2019-05-01T10:18:49.657Z,992.86
2019-05-01T10:19:50.216Z,992.87
2019-05-01T10:20:50.028Z,992.86
2019-05-01T10:21:50.215Z,992.82
2019-05-01T10:22:50.386Z,992.79
2019-05-01T10:23:51.762Z,992.78
2019-05-01T10:24:50.848Z,992.79
2019-05-01T10:25:50.920Z,992.79
2019-05-01T10:26:55.121Z,992.74
2019-05-01T10:27:52.970Z,992.74
2019-05-01T10:28:51.621Z,992.74
2019-05-01T10:29:51.667Z,992.75
2019-05-01T10:30:52.081Z,992.63
2019-05-01T10:31:52.015Z,992.66
2019-05-01T10:32:52.842Z,992.62
2019-05-01T10:33:52.355Z,992.66
2019-05-01T10:34:52.532Z,992.62
2019-05-01T10:35:52.737Z,992.63
2019-05-01T10:36:54.726Z,992.58
2019-05-01T10:37:53.115Z,992.57
2019-05-01T10:38:53.294Z,992.58
2019-05-01T10:39:54.098Z,992.57
2019-05-01T10:40:53.670Z,992.55
2019-05-01T10:41:53.855Z,992.52
2019-05-01T10:42:54.057Z,992.49
2019-05-01T10:43:54.253Z,992.51
2019-05-01T10:44:54.457Z,992.46
2019-05-01T10:45:54.646Z,992.45
2019-05-01T10:46:54.823Z,992.44
2019-05-01T10:47:54.999Z,992.45
2019-05-01T10:48:57.257Z,992.38
2019-05-01T10:49:55.369Z,992.35
2019-05-01T10:50:55.555Z,992.39
2019-05-01T10:51:55.738Z,992.32
2019-05-01T10:52:55.914Z,992.42
2019-05-01T10:53:56.114Z,992.32
2019-05-01T10:54:56.374Z,992.37
2019-05-01T10:55:56.431Z,992.36
2019-05-01T10:56:58.784Z,992.31
2019-05-01T10:57:56.878Z,992.30
2019-05-01T10:58:57.085Z,992.31
2019-05-01T10:59:57.484Z,992.33
2019-05-01T11:00:57.748Z,992.21
2019-05-01T11:01:59.074Z,992.14
2019-05-01T11:02:57.834Z,992.19
2019-05-01T11:03:58.084Z,992.25
2019-05-01T11:04:58.285Z,992.27
2019-05-01T11:05:58.705Z,992.14
2019-05-01T11:06:58.684Z,992.24
2019-05-01T11:07:59.788Z,992.27
2019-05-01T11:09:00.736Z,992.26
2019-05-01T11:09:59.778Z,992.28
2019-05-01T11:11:01.132Z,992.22
2019-05-01T11:12:01.187Z,992.08
2019-05-01T11:12:59.652Z,992.17
2019-05-01T11:13:59.636Z,992.06
2019-05-01T11:14:59.822Z,992.14
2019-05-01T11:16:00.144Z,992.13
2019-05-01T11:17:00.351Z,992.17
2019-05-01T11:18:00.350Z,992.10
2019-05-01T11:19:00.561Z,992.08
2019-05-01T11:20:00.763Z,992.20
2019-05-01T11:21:00.953Z,992.10
2019-05-01T11:22:01.130Z,992.01
2019-05-01T11:23:01.306Z,991.95
2019-05-01T11:24:01.489Z,991.95
2019-05-01T11:25:01.685Z,991.89
2019-05-01T11:26:01.846Z,991.89
2019-05-01T11:27:02.035Z,991.92
2019-05-01T11:28:02.244Z,991.97
2019-05-01T11:29:02.421Z,992.02
2019-05-01T11:30:02.601Z,992.04
2019-05-01T11:31:02.788Z,992.08
2019-05-01T11:32:02.967Z,992.07
2019-05-01T11:33:03.148Z,992.07
2019-05-01T11:34:03.330Z,992.07
2019-05-01T11:35:03.506Z,992.05
2019-05-01T11:36:09.531Z,992.02
2019-05-01T11:37:03.883Z,992.06
2019-05-01T11:38:04.060Z,992.01
2019-05-01T11:39:04.234Z,991.90
2019-05-01T11:40:04.433Z,991.88
2019-05-01T11:41:04.612Z,991.86
2019-05-01T11:42:04.799Z,991.86
2019-05-01T11:43:04.964Z,991.95
2019-05-01T11:44:05.146Z,991.97
2019-05-01T11:45:05.321Z,992.00
2019-05-01T11:46:05.539Z,991.94
2019-05-01T11:47:05.722Z,991.94
2019-05-01T11:48:05.937Z,991.88
2019-05-01T11:49:06.115Z,991.83
2019-05-01T11:50:06.281Z,991.82
2019-05-01T11:51:06.462Z,991.90
2019-05-01T11:52:06.692Z,991.88
2019-05-01T11:53:06.854Z,991.88
2019-05-01T11:54:07.034Z,991.85
2019-05-01T11:55:07.208Z,991.77
2019-05-01T11:56:07.391Z,991.74
2019-05-01T11:57:07.570Z,991.75
2019-05-01T11:58:07.788Z,991.69
2019-05-01T11:59:07.966Z,991.76
2019-05-01T12:00:08.174Z,991.66
2019-05-01T12:01:08.349Z,991.68
2019-05-01T12:02:08.522Z,991.65
2019-05-01T12:03:08.703Z,991.67
2019-05-01T12:04:08.872Z,991.69
2019-05-01T12:05:09.038Z,991.65
2019-05-01T12:06:21.854Z,991.64
2019-05-01T12:07:09.419Z,991.63
2019-05-01T12:08:09.599Z,991.58
2019-05-01T12:09:09.792Z,991.64
2019-05-01T12:10:09.934Z,991.62
2019-05-01T12:11:10.122Z,991.62
2019-05-01T12:12:10.307Z,991.64
2019-05-01T12:13:10.525Z,991.55
2019-05-01T12:14:10.680Z,991.59
2019-05-01T12:15:10.846Z,991.61
2019-05-01T12:16:11.031Z,991.60
2019-05-01T12:17:11.219Z,991.63
2019-05-01T12:18:11.385Z,991.62
2019-05-01T12:19:11.549Z,991.62
2019-05-01T12:20:11.732Z,991.63
2019-05-01T12:21:11.897Z,991.62
2019-05-01T12:22:12.073Z,991.66
2019-05-01T12:23:12.243Z,991.60
2019-05-01T12:24:12.438Z,991.60
2019-05-01T12:25:12.604Z,991.51
2019-05-01T12:26:12.778Z,991.56
2019-05-01T12:27:12.957Z,991.54
2019-05-01T12:28:13.141Z,991.53
2019-05-01T12:29:13.314Z,991.48
2019-05-01T12:30:13.507Z,991.48